sensor_id;sensor_type;location;lat;lon;timestamp;temperature;humidity
56538;DHT22;42435;53.292;6.000;2022-10-31T00:00:52;13.70;84.70
56538;DHT22;42435;53.292;6.000;2022-10-31T00:03:18;13.70;84.70
56538;DHT22;42435;53.292;6.000;2022-10-31T00:05:45;13.60;84.70
56538;DHT22;42435;53.292;6.000;2022-10-31T00:08:16;13.60;84.70
56538;DHT22;42435;53.292;6.000;2022-10-31T00:10:43;13.60;84.80
56538;DHT22;42435;53.292;6.000;2022-10-31T00:13:09;13.60;84.70
56538;DHT22;42435;53.292;6.000;2022-10-31T00:15:47;13.60;84.80
56538;DHT22;42435;53.292;6.000;2022-10-31T00:18:13;13.50;84.80
56538;DHT22;42435;53.292;6.000;2022-10-31T00:20:41;13.50;84.90
56538;DHT22;42435;53.292;6.000;2022-10-31T00:23:07;13.50;84.90
56538;DHT22;42435;53.292;6.000;2022-10-31T00:25:36;13.50;85.00
56538;DHT22;42435;53.292;6.000;2022-10-31T00:28:03;13.50;85.10
56538;DHT22;42435;53.292;6.000;2022-10-31T00:30:29;13.50;85.10
56538;DHT22;42435;53.292;6.000;2022-10-31T00:32:55;13.50;85.00
56538;DHT22;42435;53.292;6.000;2022-10-31T00:35:20;13.40;85.00
56538;DHT22;42435;53.292;6.000;2022-10-31T00:37:52;13.40;85.00
56538;DHT22;42435;53.292;6.000;2022-10-31T00:40:18;13.40;85.10
56538;DHT22;42435;53.292;6.000;2022-10-31T00:42:43;13.40;85.20
56538;DHT22;42435;53.292;6.000;2022-10-31T00:45:12;13.40;85.30
56538;DHT22;42435;53.292;6.000;2022-10-31T00:47:38;13.40;85.40
56538;DHT22;42435;53.292;6.000;2022-10-31T00:50:05;13.30;85.40
56538;DHT22;42435;53.292;6.000;2022-10-31T00:52:31;13.40;85.50
56538;DHT22;42435;53.292;6.000;2022-10-31T00:54:56;13.40;85.40
56538;DHT22;42435;53.292;6.000;2022-10-31T00:57:22;13.30;85.40
56538;DHT22;42435;53.292;6.000;2022-10-31T00:59:47;13.40;85.40
56538;DHT22;42435;53.292;6.000;2022-10-31T01:02:13;13.30;85.50
56538;DHT22;42435;53.292;6.000;2022-10-31T01:04:38;13.40;85.50
56538;DHT22;42435;53.292;6.000;2022-10-31T01:07:04;13.30;85.50
56538;DHT22;42435;53.292;6.000;2022-10-31T01:09:29;13.30;85.60
56538;DHT22;42435;53.292;6.000;2022-10-31T01:11:58;13.30;85.60
56538;DHT22;42435;53.292;6.000;2022-10-31T01:14:23;13.30;85.60
56538;DHT22;42435;53.292;6.000;2022-10-31T01:16:49;13.30;85.60
56538;DHT22;42435;53.292;6.000;2022-10-31T01:19:14;13.30;85.70
56538;DHT22;42435;53.292;6.000;2022-10-31T01:21:40;13.30;85.70
56538;DHT22;42435;53.292;6.000;2022-10-31T01:24:06;13.30;85.70
56538;DHT22;42435;53.292;6.000;2022-10-31T01:26:32;13.30;85.80
56538;DHT22;42435;53.292;6.000;2022-10-31T01:29:04;13.30;85.80
56538;DHT22;42435;53.292;6.000;2022-10-31T01:31:34;13.30;85.80
56538;DHT22;42435;53.292;6.000;2022-10-31T01:33:59;13.30;85.80
56538;DHT22;42435;53.292;6.000;2022-10-31T01:36:31;13.20;85.70
56538;DHT22;42435;53.292;6.000;2022-10-31T01:38:59;13.20;85.80
56538;DHT22;42435;53.292;6.000;2022-10-31T01:41:28;13.20;85.80
56538;DHT22;42435;53.292;6.000;2022-10-31T01:44:02;13.20;85.80
56538;DHT22;42435;53.292;6.000;2022-10-31T01:46:37;13.20;85.70
56538;DHT22;42435;53.292;6.000;2022-10-31T01:49:11;13.20;85.70
56538;DHT22;42435;53.292;6.000;2022-10-31T01:51:50;13.20;85.70
56538;DHT22;42435;53.292;6.000;2022-10-31T01:54:19;13.20;85.70
56538;DHT22;42435;53.292;6.000;2022-10-31T01:56:50;13.20;85.60
56538;DHT22;42435;53.292;6.000;2022-10-31T01:59:19;13.20;85.60
56538;DHT22;42435;53.292;6.000;2022-10-31T02:01:46;13.10;85.60
56538;DHT22;42435;53.292;6.000;2022-10-31T02:04:13;13.10;85.50
56538;DHT22;42435;53.292;6.000;2022-10-31T02:06:49;13.10;85.50
56538;DHT22;42435;53.292;6.000;2022-10-31T02:09:15;13.10;85.50
56538;DHT22;42435;53.292;6.000;2022-10-31T02:11:44;13.10;85.40
56538;DHT22;42435;53.292;6.000;2022-10-31T02:14:13;13.10;85.40
56538;DHT22;42435;53.292;6.000;2022-10-31T02:16:39;13.00;85.40
56538;DHT22;42435;53.292;6.000;2022-10-31T02:19:08;13.00;85.40
56538;DHT22;42435;53.292;6.000;2022-10-31T02:21:52;12.90;85.40
56538;DHT22;42435;53.292;6.000;2022-10-31T02:24:42;13.00;85.40
56538;DHT22;42435;53.292;6.000;2022-10-31T02:30:15;12.90;85.40
56538;DHT22;42435;53.292;6.000;2022-10-31T02:40:53;12.90;85.40
56538;DHT22;42435;53.292;6.000;2022-10-31T02:43:52;12.80;85.40
56538;DHT22;42435;53.292;6.000;2022-10-31T02:46:28;12.80;85.50
56538;DHT22;42435;53.292;6.000;2022-10-31T02:48:59;12.80;85.40
56538;DHT22;42435;53.292;6.000;2022-10-31T02:51:26;12.80;85.40
56538;DHT22;42435;53.292;6.000;2022-10-31T02:53:52;12.80;85.40
56538;DHT22;42435;53.292;6.000;2022-10-31T02:56:19;12.80;85.40
56538;DHT22;42435;53.292;6.000;2022-10-31T02:58:46;12.80;85.40
56538;DHT22;42435;53.292;6.000;2022-10-31T03:01:39;12.70;85.30
56538;DHT22;42435;53.292;6.000;2022-10-31T03:07:30;12.70;85.30
56538;DHT22;42435;53.292;6.000;2022-10-31T03:13:06;12.70;85.30
56538;DHT22;42435;53.292;6.000;2022-10-31T03:15:37;12.70;85.20
56538;DHT22;42435;53.292;6.000;2022-10-31T03:18:13;12.70;85.20
56538;DHT22;42435;53.292;6.000;2022-10-31T03:20:47;12.70;85.20
56538;DHT22;42435;53.292;6.000;2022-10-31T03:23:17;12.60;85.20
56538;DHT22;42435;53.292;6.000;2022-10-31T03:25:45;12.60;85.20
56538;DHT22;42435;53.292;6.000;2022-10-31T03:28:14;12.60;85.20
56538;DHT22;42435;53.292;6.000;2022-10-31T03:30:44;12.60;85.20
56538;DHT22;42435;53.292;6.000;2022-10-31T03:33:16;12.60;85.20
56538;DHT22;42435;53.292;6.000;2022-10-31T03:35:48;12.50;85.20
56538;DHT22;42435;53.292;6.000;2022-10-31T03:38:15;12.50;85.10
56538;DHT22;42435;53.292;6.000;2022-10-31T03:40:45;12.50;85.20
56538;DHT22;42435;53.292;6.000;2022-10-31T03:43:17;12.50;85.20
56538;DHT22;42435;53.292;6.000;2022-10-31T03:45:46;12.50;85.20
56538;DHT22;42435;53.292;6.000;2022-10-31T03:48:17;12.50;85.20
56538;DHT22;42435;53.292;6.000;2022-10-31T03:51:22;12.50;85.20
56538;DHT22;42435;53.292;6.000;2022-10-31T03:56:37;12.40;85.10
56538;DHT22;42435;53.292;6.000;2022-10-31T03:59:13;12.40;85.30
56538;DHT22;42435;53.292;6.000;2022-10-31T04:01:44;12.40;85.20
56538;DHT22;42435;53.292;6.000;2022-10-31T04:04:12;12.40;85.30
56538;DHT22;42435;53.292;6.000;2022-10-31T04:06:41;12.40;85.20
56538;DHT22;42435;53.292;6.000;2022-10-31T04:09:08;12.40;85.20
56538;DHT22;42435;53.292;6.000;2022-10-31T04:11:38;12.40;85.30
56538;DHT22;42435;53.292;6.000;2022-10-31T04:14:06;12.30;85.30
56538;DHT22;42435;53.292;6.000;2022-10-31T04:16:33;12.30;85.30
56538;DHT22;42435;53.292;6.000;2022-10-31T04:18:59;12.30;85.30
56538;DHT22;42435;53.292;6.000;2022-10-31T04:21:28;12.30;85.30
56538;DHT22;42435;53.292;6.000;2022-10-31T04:23:58;12.30;85.40
56538;DHT22;42435;53.292;6.000;2022-10-31T04:26:23;12.20;85.30
56538;DHT22;42435;53.292;6.000;2022-10-31T04:28:49;12.20;85.30
56538;DHT22;42435;53.292;6.000;2022-10-31T04:31:17;12.20;85.30
56538;DHT22;42435;53.292;6.000;2022-10-31T04:33:43;12.20;85.30
56538;DHT22;42435;53.292;6.000;2022-10-31T04:36:08;12.20;85.30
56538;DHT22;42435;53.292;6.000;2022-10-31T04:38:34;12.20;85.30
56538;DHT22;42435;53.292;6.000;2022-10-31T04:40:59;12.20;85.30
56538;DHT22;42435;53.292;6.000;2022-10-31T04:43:25;12.20;85.20
56538;DHT22;42435;53.292;6.000;2022-10-31T04:45:51;12.20;85.20
56538;DHT22;42435;53.292;6.000;2022-10-31T04:48:20;12.10;85.20
56538;DHT22;42435;53.292;6.000;2022-10-31T04:50:45;12.10;85.20
56538;DHT22;42435;53.292;6.000;2022-10-31T04:53:11;12.10;85.20
56538;DHT22;42435;53.292;6.000;2022-10-31T04:55:39;12.10;85.20
56538;DHT22;42435;53.292;6.000;2022-10-31T04:58:04;12.10;85.10
56538;DHT22;42435;53.292;6.000;2022-10-31T05:00:30;12.00;85.10
56538;DHT22;42435;53.292;6.000;2022-10-31T05:02:57;12.00;85.10
56538;DHT22;42435;53.292;6.000;2022-10-31T05:05:28;12.00;85.10
56538;DHT22;42435;53.292;6.000;2022-10-31T05:07:55;12.00;85.10
56538;DHT22;42435;53.292;6.000;2022-10-31T05:10:23;12.00;85.10
56538;DHT22;42435;53.292;6.000;2022-10-31T05:12:50;11.90;85.10
56538;DHT22;42435;53.292;6.000;2022-10-31T05:15:19;11.90;85.10
56538;DHT22;42435;53.292;6.000;2022-10-31T05:17:52;11.90;85.20
56538;DHT22;42435;53.292;6.000;2022-10-31T05:20:22;11.90;85.30
56538;DHT22;42435;53.292;6.000;2022-10-31T05:22:50;11.90;85.30
56538;DHT22;42435;53.292;6.000;2022-10-31T05:25:17;11.90;85.30
56538;DHT22;42435;53.292;6.000;2022-10-31T05:27:45;11.90;85.30
56538;DHT22;42435;53.292;6.000;2022-10-31T05:30:13;11.90;85.30
56538;DHT22;42435;53.292;6.000;2022-10-31T05:32:46;11.90;85.30
56538;DHT22;42435;53.292;6.000;2022-10-31T05:35:14;11.90;85.30
56538;DHT22;42435;53.292;6.000;2022-10-31T05:37:40;11.80;85.30
56538;DHT22;42435;53.292;6.000;2022-10-31T05:40:08;11.80;85.30
56538;DHT22;42435;53.292;6.000;2022-10-31T05:42:34;11.80;85.40
56538;DHT22;42435;53.292;6.000;2022-10-31T05:45:03;11.80;85.40
56538;DHT22;42435;53.292;6.000;2022-10-31T05:47:30;11.80;85.40
56538;DHT22;42435;53.292;6.000;2022-10-31T05:49:55;11.80;85.50
56538;DHT22;42435;53.292;6.000;2022-10-31T05:52:21;11.80;85.60
56538;DHT22;42435;53.292;6.000;2022-10-31T05:54:46;11.80;85.60
56538;DHT22;42435;53.292;6.000;2022-10-31T05:57:12;11.70;85.60
56538;DHT22;42435;53.292;6.000;2022-10-31T05:59:40;11.80;85.60
56538;DHT22;42435;53.292;6.000;2022-10-31T06:02:08;11.70;85.60
56538;DHT22;42435;53.292;6.000;2022-10-31T06:04:34;11.70;85.60
56538;DHT22;42435;53.292;6.000;2022-10-31T06:07:03;11.70;85.60
56538;DHT22;42435;53.292;6.000;2022-10-31T06:09:28;11.70;85.60
56538;DHT22;42435;53.292;6.000;2022-10-31T06:11:54;11.70;85.70
56538;DHT22;42435;53.292;6.000;2022-10-31T06:14:23;11.70;85.70
56538;DHT22;42435;53.292;6.000;2022-10-31T06:16:49;11.70;85.70
56538;DHT22;42435;53.292;6.000;2022-10-31T06:19:14;11.70;85.80
56538;DHT22;42435;53.292;6.000;2022-10-31T06:21:40;11.80;85.70
56538;DHT22;42435;53.292;6.000;2022-10-31T06:24:05;11.70;85.70
56538;DHT22;42435;53.292;6.000;2022-10-31T06:26:31;11.80;85.80
56538;DHT22;42435;53.292;6.000;2022-10-31T06:28:59;11.70;85.80
56538;DHT22;42435;53.292;6.000;2022-10-31T06:31:25;11.80;85.90
56538;DHT22;42435;53.292;6.000;2022-10-31T06:33:50;11.70;85.90
56538;DHT22;42435;53.292;6.000;2022-10-31T06:36:16;11.70;85.90
56538;DHT22;42435;53.292;6.000;2022-10-31T06:38:41;11.70;85.90
56538;DHT22;42435;53.292;6.000;2022-10-31T06:41:07;11.70;85.90
56538;DHT22;42435;53.292;6.000;2022-10-31T06:43:33;11.70;85.90
56538;DHT22;42435;53.292;6.000;2022-10-31T06:46:02;11.80;85.90
56538;DHT22;42435;53.292;6.000;2022-10-31T06:48:32;11.80;85.90
56538;DHT22;42435;53.292;6.000;2022-10-31T06:50:59;11.80;85.90
56538;DHT22;42435;53.292;6.000;2022-10-31T06:53:25;11.80;85.90
56538;DHT22;42435;53.292;6.000;2022-10-31T06:55:55;11.80;85.90
56538;DHT22;42435;53.292;6.000;2022-10-31T06:58:21;11.80;85.90
56538;DHT22;42435;53.292;6.000;2022-10-31T07:00:47;11.80;85.80
56538;DHT22;42435;53.292;6.000;2022-10-31T07:03:13;11.80;85.80
56538;DHT22;42435;53.292;6.000;2022-10-31T07:05:41;11.80;85.70
56538;DHT22;42435;53.292;6.000;2022-10-31T07:08:09;11.80;85.70
56538;DHT22;42435;53.292;6.000;2022-10-31T07:10:36;11.80;85.70
56538;DHT22;42435;53.292;6.000;2022-10-31T07:13:04;11.80;85.70
56538;DHT22;42435;53.292;6.000;2022-10-31T07:15:36;11.80;85.70
56538;DHT22;42435;53.292;6.000;2022-10-31T07:18:04;11.90;85.80
56538;DHT22;42435;53.292;6.000;2022-10-31T07:20:33;11.90;85.70
56538;DHT22;42435;53.292;6.000;2022-10-31T07:22:59;11.90;85.80
56538;DHT22;42435;53.292;6.000;2022-10-31T07:25:26;11.90;85.70
56538;DHT22;42435;53.292;6.000;2022-10-31T07:27:55;11.90;85.70
56538;DHT22;42435;53.292;6.000;2022-10-31T07:30:21;12.00;85.70
56538;DHT22;42435;53.292;6.000;2022-10-31T07:32:55;12.00;85.70
56538;DHT22;42435;53.292;6.000;2022-10-31T07:35:24;12.00;85.80
56538;DHT22;42435;53.292;6.000;2022-10-31T07:37:50;12.10;85.70
56538;DHT22;42435;53.292;6.000;2022-10-31T07:40:17;12.10;85.80
56538;DHT22;42435;53.292;6.000;2022-10-31T07:42:46;12.20;85.80
56538;DHT22;42435;53.292;6.000;2022-10-31T07:45:15;12.20;85.80
56538;DHT22;42435;53.292;6.000;2022-10-31T07:47:46;12.20;85.70
56538;DHT22;42435;53.292;6.000;2022-10-31T07:50:14;12.30;85.70
56538;DHT22;42435;53.292;6.000;2022-10-31T07:52:40;12.40;85.70
56538;DHT22;42435;53.292;6.000;2022-10-31T07:55:10;12.40;85.70
56538;DHT22;42435;53.292;6.000;2022-10-31T07:57:36;12.40;85.60
56538;DHT22;42435;53.292;6.000;2022-10-31T08:00:08;12.50;85.60
56538;DHT22;42435;53.292;6.000;2022-10-31T08:02:34;12.50;85.60
56538;DHT22;42435;53.292;6.000;2022-10-31T08:05:00;12.60;85.70
56538;DHT22;42435;53.292;6.000;2022-10-31T08:07:28;12.70;85.80
56538;DHT22;42435;53.292;6.000;2022-10-31T08:09:54;12.70;85.70
56538;DHT22;42435;53.292;6.000;2022-10-31T08:12:23;12.80;85.70
56538;DHT22;42435;53.292;6.000;2022-10-31T08:14:49;12.90;85.70
56538;DHT22;42435;53.292;6.000;2022-10-31T08:17:18;13.10;85.70
56538;DHT22;42435;53.292;6.000;2022-10-31T08:19:46;13.30;85.60
56538;DHT22;42435;53.292;6.000;2022-10-31T08:22:12;13.40;85.50
56538;DHT22;42435;53.292;6.000;2022-10-31T08:24:37;13.50;85.30
56538;DHT22;42435;53.292;6.000;2022-10-31T08:27:03;13.70;85.00
56538;DHT22;42435;53.292;6.000;2022-10-31T08:29:28;13.90;84.80
56538;DHT22;42435;53.292;6.000;2022-10-31T08:31:57;14.10;84.50
56538;DHT22;42435;53.292;6.000;2022-10-31T08:34:26;14.30;84.10
56538;DHT22;42435;53.292;6.000;2022-10-31T08:36:52;14.50;83.70
56538;DHT22;42435;53.292;6.000;2022-10-31T08:39:17;14.70;83.40
56538;DHT22;42435;53.292;6.000;2022-10-31T08:41:43;14.80;82.90
56538;DHT22;42435;53.292;6.000;2022-10-31T08:44:13;15.00;82.60
56538;DHT22;42435;53.292;6.000;2022-10-31T08:46:41;15.20;82.10
56538;DHT22;42435;53.292;6.000;2022-10-31T08:49:06;15.30;81.70
56538;DHT22;42435;53.292;6.000;2022-10-31T08:51:32;15.40;81.20
56538;DHT22;42435;53.292;6.000;2022-10-31T08:53:57;15.50;80.70
56538;DHT22;42435;53.292;6.000;2022-10-31T08:56:26;15.60;80.40
56538;DHT22;42435;53.292;6.000;2022-10-31T08:58:53;15.70;80.10
56538;DHT22;42435;53.292;6.000;2022-10-31T09:01:18;15.80;79.90
56538;DHT22;42435;53.292;6.000;2022-10-31T09:03:44;15.90;79.50
56538;DHT22;42435;53.292;6.000;2022-10-31T09:06:10;16.00;79.00
56538;DHT22;42435;53.292;6.000;2022-10-31T09:08:36;16.10;78.70
56538;DHT22;42435;53.292;6.000;2022-10-31T09:11:02;16.20;78.60
56538;DHT22;42435;53.292;6.000;2022-10-31T09:13:28;16.30;78.50
56538;DHT22;42435;53.292;6.000;2022-10-31T09:15:53;16.40;78.10
56538;DHT22;42435;53.292;6.000;2022-10-31T09:18:21;16.60;77.90
56538;DHT22;42435;53.292;6.000;2022-10-31T09:20:48;16.70;77.50
56538;DHT22;42435;53.292;6.000;2022-10-31T09:23:18;16.80;76.80
56538;DHT22;42435;53.292;6.000;2022-10-31T09:25:47;16.90;76.50
56538;DHT22;42435;53.292;6.000;2022-10-31T09:28:15;16.90;76.50
56538;DHT22;42435;53.292;6.000;2022-10-31T09:30:41;17.10;76.30
56538;DHT22;42435;53.292;6.000;2022-10-31T09:33:10;17.20;76.10
56538;DHT22;42435;53.292;6.000;2022-10-31T09:35:36;17.40;75.70
56538;DHT22;42435;53.292;6.000;2022-10-31T09:38:10;17.50;75.50
56538;DHT22;42435;53.292;6.000;2022-10-31T09:40:44;17.70;74.70
56538;DHT22;42435;53.292;6.000;2022-10-31T09:43:22;17.80;74.50
56538;DHT22;42435;53.292;6.000;2022-10-31T09:48:58;18.10;74.00
56538;DHT22;42435;53.292;6.000;2022-10-31T09:51:34;18.20;72.90
56538;DHT22;42435;53.292;6.000;2022-10-31T09:54:08;18.20;72.90
56538;DHT22;42435;53.292;6.000;2022-10-31T09:56:36;18.30;72.80
56538;DHT22;42435;53.292;6.000;2022-10-31T09:59:05;18.40;72.40
56538;DHT22;42435;53.292;6.000;2022-10-31T10:01:56;18.40;71.90
56538;DHT22;42435;53.292;6.000;2022-10-31T10:10:01;18.70;71.30
56538;DHT22;42435;53.292;6.000;2022-10-31T10:12:44;18.70;70.90
56538;DHT22;42435;53.292;6.000;2022-10-31T10:21:24;18.60;70.30
56538;DHT22;42435;53.292;6.000;2022-10-31T10:24:01;18.50;70.20
56538;DHT22;42435;53.292;6.000;2022-10-31T10:26:37;18.40;70.40
56538;DHT22;42435;53.292;6.000;2022-10-31T10:31:53;18.20;70.60
56538;DHT22;42435;53.292;6.000;2022-10-31T10:34:34;18.10;70.80
56538;DHT22;42435;53.292;6.000;2022-10-31T10:37:05;18.10;71.20
56538;DHT22;42435;53.292;6.000;2022-10-31T10:39:41;18.10;71.40
56538;DHT22;42435;53.292;6.000;2022-10-31T10:42:12;18.20;71.60
56538;DHT22;42435;53.292;6.000;2022-10-31T10:44:57;18.30;71.40
56538;DHT22;42435;53.292;6.000;2022-10-31T10:47:44;18.40;71.30
56538;DHT22;42435;53.292;6.000;2022-10-31T10:50:21;18.40;70.70
56538;DHT22;42435;53.292;6.000;2022-10-31T10:58:08;18.40;70.00
56538;DHT22;42435;53.292;6.000;2022-10-31T11:00:45;18.30;70.30
56538;DHT22;42435;53.292;6.000;2022-10-31T11:03:18;18.20;70.50
56538;DHT22;42435;53.292;6.000;2022-10-31T11:05:53;18.20;70.90
56538;DHT22;42435;53.292;6.000;2022-10-31T11:08:26;18.20;71.00
56538;DHT22;42435;53.292;6.000;2022-10-31T11:11:03;18.30;70.90
56538;DHT22;42435;53.292;6.000;2022-10-31T11:13:30;18.40;70.60
56538;DHT22;42435;53.292;6.000;2022-10-31T11:16:00;18.40;70.50
56538;DHT22;42435;53.292;6.000;2022-10-31T11:18:29;18.40;70.10
56538;DHT22;42435;53.292;6.000;2022-10-31T11:20:57;18.50;70.00
56538;DHT22;42435;53.292;6.000;2022-10-31T11:23:25;18.60;69.90
56538;DHT22;42435;53.292;6.000;2022-10-31T11:25:55;18.70;69.70
56538;DHT22;42435;53.292;6.000;2022-10-31T11:28:21;18.80;69.40
56538;DHT22;42435;53.292;6.000;2022-10-31T11:30:54;18.80;69.30
56538;DHT22;42435;53.292;6.000;2022-10-31T11:33:35;18.90;69.10
56538;DHT22;42435;53.292;6.000;2022-10-31T11:36:13;18.90;68.80
56538;DHT22;42435;53.292;6.000;2022-10-31T11:38:41;18.90;68.40
56538;DHT22;42435;53.292;6.000;2022-10-31T11:41:28;18.90;68.20
56538;DHT22;42435;53.292;6.000;2022-10-31T11:44:12;18.80;68.30
56538;DHT22;42435;53.292;6.000;2022-10-31T11:46:41;18.80;68.60
56538;DHT22;42435;53.292;6.000;2022-10-31T11:49:19;18.90;68.70
56538;DHT22;42435;53.292;6.000;2022-10-31T11:51:54;18.90;68.50
56538;DHT22;42435;53.292;6.000;2022-10-31T11:54:31;19.00;68.20
56538;DHT22;42435;53.292;6.000;2022-10-31T11:56:58;18.90;67.80
56538;DHT22;42435;53.292;6.000;2022-10-31T11:59:29;19.00;67.70
56538;DHT22;42435;53.292;6.000;2022-10-31T12:01:57;19.00;67.60
56538;DHT22;42435;53.292;6.000;2022-10-31T12:07:13;19.30;67.40
56538;DHT22;42435;53.292;6.000;2022-10-31T12:09:39;19.40;67.00
56538;DHT22;42435;53.292;6.000;2022-10-31T12:17:54;19.30;66.30
56538;DHT22;42435;53.292;6.000;2022-10-31T12:20:41;19.30;66.30
56538;DHT22;42435;53.292;6.000;2022-10-31T12:23:22;19.30;65.80
56538;DHT22;42435;53.292;6.000;2022-10-31T12:28:58;19.20;65.80
56538;DHT22;42435;53.292;6.000;2022-10-31T12:31:42;19.10;65.90
56538;DHT22;42435;53.292;6.000;2022-10-31T12:59:42;18.30;68.00
56538;DHT22;42435;53.292;6.000;2022-10-31T13:04:57;18.20;68.60
56538;DHT22;42435;53.292;6.000;2022-10-31T13:08:10;18.20;68.70
56538;DHT22;42435;53.292;6.000;2022-10-31T13:10:24;18.20;68.90
56538;DHT22;42435;53.292;6.000;2022-10-31T13:12:53;18.30;69.00
56538;DHT22;42435;53.292;6.000;2022-10-31T13:15:34;18.30;68.90
56538;DHT22;42435;53.292;6.000;2022-10-31T13:18:09;18.40;68.90
56538;DHT22;42435;53.292;6.000;2022-10-31T13:20:42;18.40;69.10
56538;DHT22;42435;53.292;6.000;2022-10-31T13:23:40;18.50;68.90
56538;DHT22;42435;53.292;6.000;2022-10-31T13:26:32;18.70;68.40
56538;DHT22;42435;53.292;6.000;2022-10-31T13:31:47;18.80;67.50
56538;DHT22;42435;53.292;6.000;2022-10-31T13:45:20;19.00;67.50
56538;DHT22;42435;53.292;6.000;2022-10-31T13:50:40;19.20;66.10
56538;DHT22;42435;53.292;6.000;2022-10-31T13:53:19;19.10;66.10
56538;DHT22;42435;53.292;6.000;2022-10-31T13:55:48;19.20;65.90
56538;DHT22;42435;53.292;6.000;2022-10-31T13:58:21;19.20;66.00
56538;DHT22;42435;53.292;6.000;2022-10-31T14:03:40;19.20;65.60
56538;DHT22;42435;53.292;6.000;2022-10-31T14:06:08;19.20;65.30
56538;DHT22;42435;53.292;6.000;2022-10-31T14:08:36;19.20;65.20
56538;DHT22;42435;53.292;6.000;2022-10-31T14:11:03;19.10;65.00
56538;DHT22;42435;53.292;6.000;2022-10-31T14:13:36;19.00;65.30
56538;DHT22;42435;53.292;6.000;2022-10-31T14:16:18;18.90;65.60
56538;DHT22;42435;53.292;6.000;2022-10-31T14:18:51;18.80;65.90
56538;DHT22;42435;53.292;6.000;2022-10-31T14:23:48;18.60;66.70
56538;DHT22;42435;53.292;6.000;2022-10-31T14:26:18;18.50;66.90
56538;DHT22;42435;53.292;6.000;2022-10-31T14:28:49;18.50;67.30
56538;DHT22;42435;53.292;6.000;2022-10-31T14:37:02;18.40;68.10
56538;DHT22;42435;53.292;6.000;2022-10-31T14:45:49;18.30;68.50
56538;DHT22;42435;53.292;6.000;2022-10-31T14:51:16;18.10;69.10
56538;DHT22;42435;53.292;6.000;2022-10-31T14:53:54;18.00;69.20
56538;DHT22;42435;53.292;6.000;2022-10-31T14:56:23;17.90;69.40
56538;DHT22;42435;53.292;6.000;2022-10-31T14:58:50;17.90;69.40
56538;DHT22;42435;53.292;6.000;2022-10-31T15:01:23;17.80;69.70
56538;DHT22;42435;53.292;6.000;2022-10-31T15:03:50;17.60;70.10
56538;DHT22;42435;53.292;6.000;2022-10-31T15:06:21;17.60;70.30
56538;DHT22;42435;53.292;6.000;2022-10-31T15:08:50;17.50;70.60
56538;DHT22;42435;53.292;6.000;2022-10-31T15:11:22;17.40;70.80
56538;DHT22;42435;53.292;6.000;2022-10-31T15:13:56;17.30;71.30
56538;DHT22;42435;53.292;6.000;2022-10-31T15:16:42;17.30;71.60
56538;DHT22;42435;53.292;6.000;2022-10-31T15:19:13;17.20;71.90
56538;DHT22;42435;53.292;6.000;2022-10-31T15:21:43;17.10;72.10
56538;DHT22;42435;53.292;6.000;2022-10-31T15:24:14;17.00;72.40
56538;DHT22;42435;53.292;6.000;2022-10-31T15:26:52;17.00;72.60
56538;DHT22;42435;53.292;6.000;2022-10-31T15:29:22;16.90;72.90
56538;DHT22;42435;53.292;6.000;2022-10-31T15:31:58;16.90;73.10
56538;DHT22;42435;53.292;6.000;2022-10-31T15:34:41;16.80;73.40
56538;DHT22;42435;53.292;6.000;2022-10-31T15:37:33;16.70;73.70
56538;DHT22;42435;53.292;6.000;2022-10-31T15:40:07;16.60;74.00
56538;DHT22;42435;53.292;6.000;2022-10-31T15:42:40;16.50;74.00
56538;DHT22;42435;53.292;6.000;2022-10-31T15:47:35;16.40;74.30
56538;DHT22;42435;53.292;6.000;2022-10-31T15:50:03;16.30;74.50
56538;DHT22;42435;53.292;6.000;2022-10-31T15:52:36;16.20;74.70
56538;DHT22;42435;53.292;6.000;2022-10-31T15:55:19;16.20;75.10
56538;DHT22;42435;53.292;6.000;2022-10-31T15:57:49;16.10;75.30
56538;DHT22;42435;53.292;6.000;2022-10-31T16:00:29;16.00;75.40
56538;DHT22;42435;53.292;6.000;2022-10-31T16:05:48;15.90;75.70
56538;DHT22;42435;53.292;6.000;2022-10-31T16:13:41;15.80;75.80
56538;DHT22;42435;53.292;6.000;2022-10-31T16:16:17;15.70;75.90
56538;DHT22;42435;53.292;6.000;2022-10-31T16:18:46;15.70;76.00
56538;DHT22;42435;53.292;6.000;2022-10-31T16:21:12;15.70;76.10
56538;DHT22;42435;53.292;6.000;2022-10-31T16:23:43;15.70;76.20
56538;DHT22;42435;53.292;6.000;2022-10-31T16:26:17;15.70;76.30
56538;DHT22;42435;53.292;6.000;2022-10-31T16:28:56;15.60;76.30
56538;DHT22;42435;53.292;6.000;2022-10-31T16:31:35;15.70;76.30
56538;DHT22;42435;53.292;6.000;2022-10-31T16:34:19;15.60;76.50
56538;DHT22;42435;53.292;6.000;2022-10-31T16:36:45;15.60;76.60
56538;DHT22;42435;53.292;6.000;2022-10-31T16:39:11;15.60;76.50
56538;DHT22;42435;53.292;6.000;2022-10-31T16:41:41;15.60;76.70
56538;DHT22;42435;53.292;6.000;2022-10-31T16:44:19;15.60;77.00
56538;DHT22;42435;53.292;6.000;2022-10-31T16:46:47;15.60;77.20
56538;DHT22;42435;53.292;6.000;2022-10-31T16:49:13;15.50;77.20
56538;DHT22;42435;53.292;6.000;2022-10-31T16:51:40;15.50;77.30
56538;DHT22;42435;53.292;6.000;2022-10-31T16:54:06;15.40;77.60
56538;DHT22;42435;53.292;6.000;2022-10-31T16:56:36;15.40;77.90
56538;DHT22;42435;53.292;6.000;2022-10-31T16:59:04;15.40;78.10
56538;DHT22;42435;53.292;6.000;2022-10-31T17:01:31;15.40;78.20
56538;DHT22;42435;53.292;6.000;2022-10-31T17:03:57;15.30;78.30
56538;DHT22;42435;53.292;6.000;2022-10-31T17:06:22;15.30;78.50
56538;DHT22;42435;53.292;6.000;2022-10-31T17:08:48;15.30;78.50
56538;DHT22;42435;53.292;6.000;2022-10-31T17:11:19;15.30;78.60
56538;DHT22;42435;53.292;6.000;2022-10-31T17:13:46;15.30;78.70
56538;DHT22;42435;53.292;6.000;2022-10-31T17:16:13;15.30;78.70
56538;DHT22;42435;53.292;6.000;2022-10-31T17:18:42;15.20;78.90
56538;DHT22;42435;53.292;6.000;2022-10-31T17:21:22;15.20;79.00
56538;DHT22;42435;53.292;6.000;2022-10-31T17:23:51;15.20;79.10
56538;DHT22;42435;53.292;6.000;2022-10-31T17:26:17;15.20;79.30
56538;DHT22;42435;53.292;6.000;2022-10-31T17:28:43;15.20;79.30
56538;DHT22;42435;53.292;6.000;2022-10-31T17:31:25;15.20;79.30
56538;DHT22;42435;53.292;6.000;2022-10-31T17:33:54;15.20;79.50
56538;DHT22;42435;53.292;6.000;2022-10-31T17:36:20;15.20;79.40
56538;DHT22;42435;53.292;6.000;2022-10-31T17:38:51;15.10;79.50
56538;DHT22;42435;53.292;6.000;2022-10-31T17:41:16;15.10;79.60
56538;DHT22;42435;53.292;6.000;2022-10-31T17:43:42;15.10;79.60
56538;DHT22;42435;53.292;6.000;2022-10-31T17:46:08;15.10;79.70
56538;DHT22;42435;53.292;6.000;2022-10-31T17:48:35;15.10;79.70
56538;DHT22;42435;53.292;6.000;2022-10-31T17:51:05;15.10;79.80
56538;DHT22;42435;53.292;6.000;2022-10-31T17:53:32;15.00;79.80
56538;DHT22;42435;53.292;6.000;2022-10-31T17:56:10;15.00;79.80
56538;DHT22;42435;53.292;6.000;2022-10-31T17:58:37;15.00;79.90